sensor_id;sensor_type;location;lat;lon;timestamp;P1;durP1;ratioP1;P2;durP2;ratioP2
39050;SDS011;24805;55.852;37.644;2022-11-18T00:00:09;4.45;;;1.95;;
39050;SDS011;24805;55.852;37.644;2022-11-18T00:05:12;4.93;;;2.58;;
39050;SDS011;24805;55.852;37.644;2022-11-18T00:10:14;4.30;;;2.50;;
39050;SDS011;24805;55.852;37.644;2022-11-18T00:15:16;5.25;;;2.83;;
39050;SDS011;24805;55.852;37.644;2022-11-18T00:20:18;5.88;;;2.70;;
39050;SDS011;24805;55.852;37.644;2022-11-18T00:25:21;6.00;;;3.40;;
39050;SDS011;24805;55.852;37.644;2022-11-18T00:30:23;5.22;;;2.20;;
39050;SDS011;24805;55.852;37.644;2022-11-18T00:35:25;5.65;;;2.85;;
39050;SDS011;24805;55.852;37.644;2022-11-18T00:40:27;5.28;;;2.67;;
39050;SDS011;24805;55.852;37.644;2022-11-18T00:45:29;8.20;;;3.05;;
39050;SDS011;24805;55.852;37.644;2022-11-18T00:50:31;5.20;;;2.33;;
39050;SDS011;24805;55.852;37.644;2022-11-18T00:55:34;6.15;;;3.17;;
39050;SDS011;24805;55.852;37.644;2022-11-18T01:00:36;4.97;;;2.55;;
39050;SDS011;24805;55.852;37.644;2022-11-18T01:05:38;6.75;;;2.55;;
39050;SDS011;24805;55.852;37.644;2022-11-18T01:10:40;5.68;;;2.70;;
39050;SDS011;24805;55.852;37.644;2022-11-18T01:15:43;5.53;;;2.45;;
39050;SDS011;24805;55.852;37.644;2022-11-18T01:20:49;5.50;;;2.50;;
39050;SDS011;24805;55.852;37.644;2022-11-18T01:25:51;4.95;;;2.63;;
39050;SDS011;24805;55.852;37.644;2022-11-18T01:30:53;4.22;;;2.60;;
39050;SDS011;24805;55.852;37.644;2022-11-18T01:35:55;5.50;;;3.38;;
39050;SDS011;24805;55.852;37.644;2022-11-18T01:40:58;5.43;;;2.40;;
39050;SDS011;24805;55.852;37.644;2022-11-18T01:46:00;3.90;;;1.83;;
39050;SDS011;24805;55.852;37.644;2022-11-18T01:51:03;4.07;;;2.40;;
39050;SDS011;24805;55.852;37.644;2022-11-18T01:56:11;4.65;;;2.58;;
39050;SDS011;24805;55.852;37.644;2022-11-18T02:01:17;4.60;;;2.72;;
39050;SDS011;24805;55.852;37.644;2022-11-18T02:06:19;4.80;;;2.28;;
39050;SDS011;24805;55.852;37.644;2022-11-18T02:11:22;4.32;;;2.15;;
39050;SDS011;24805;55.852;37.644;2022-11-18T02:17:01;5.18;;;2.25;;
39050;SDS011;24805;55.852;37.644;2022-11-18T02:32:32;4.18;;;2.38;;
39050;SDS011;24805;55.852;37.644;2022-11-18T02:43:11;3.90;;;2.23;;
39050;SDS011;24805;55.852;37.644;2022-11-18T02:48:19;3.88;;;2.33;;
39050;SDS011;24805;55.852;37.644;2022-11-18T02:53:25;3.80;;;2.17;;
39050;SDS011;24805;55.852;37.644;2022-11-18T02:58:30;4.30;;;2.50;;
39050;SDS011;24805;55.852;37.644;2022-11-18T03:03:34;5.75;;;2.83;;
39050;SDS011;24805;55.852;37.644;2022-11-18T03:08:38;4.57;;;2.70;;
39050;SDS011;24805;55.852;37.644;2022-11-18T03:19:21;5.20;;;2.43;;
39050;SDS011;24805;55.852;37.644;2022-11-18T03:24:40;3.72;;;2.15;;
39050;SDS011;24805;55.852;37.644;2022-11-18T03:29:55;4.45;;;2.50;;
39050;SDS011;24805;55.852;37.644;2022-11-18T03:35:05;6.07;;;2.75;;
39050;SDS011;24805;55.852;37.644;2022-11-18T03:40:21;4.85;;;2.10;;
39050;SDS011;24805;55.852;37.644;2022-11-18T03:50:50;3.92;;;2.63;;
39050;SDS011;24805;55.852;37.644;2022-11-18T03:55:57;5.10;;;2.70;;
39050;SDS011;24805;55.852;37.644;2022-11-18T04:01:12;7.93;;;3.72;;
39050;SDS011;24805;55.852;37.644;2022-11-18T04:06:37;3.58;;;2.22;;
39050;SDS011;24805;55.852;37.644;2022-11-18T04:11:46;3.72;;;2.13;;
39050;SDS011;24805;55.852;37.644;2022-11-18T04:22:08;5.60;;;2.33;;
39050;SDS011;24805;55.852;37.644;2022-11-18T04:27:11;3.55;;;2.40;;
39050;SDS011;24805;55.852;37.644;2022-11-18T04:32:13;4.68;;;1.90;;
39050;SDS011;24805;55.852;37.644;2022-11-18T04:37:15;5.32;;;2.28;;
39050;SDS011;24805;55.852;37.644;2022-11-18T04:42:17;4.25;;;2.30;;
39050;SDS011;24805;55.852;37.644;2022-11-18T04:47:19;4.13;;;2.10;;
39050;SDS011;24805;55.852;37.644;2022-11-18T04:52:21;4.28;;;1.75;;
39050;SDS011;24805;55.852;37.644;2022-11-18T04:57:23;4.35;;;2.35;;
39050;SDS011;24805;55.852;37.644;2022-11-18T05:02:25;5.32;;;1.92;;
39050;SDS011;24805;55.852;37.644;2022-11-18T05:07:29;4.00;;;2.30;;
39050;SDS011;24805;55.852;37.644;2022-11-18T05:12:31;7.30;;;5.03;;
39050;SDS011;24805;55.852;37.644;2022-11-18T05:17:52;4.50;;;2.33;;
39050;SDS011;24805;55.852;37.644;2022-11-18T05:22:54;5.60;;;2.05;;
39050;SDS011;24805;55.852;37.644;2022-11-18T05:27:56;3.45;;;2.13;;
39050;SDS011;24805;55.852;37.644;2022-11-18T05:32:58;4.10;;;2.45;;
39050;SDS011;24805;55.852;37.644;2022-11-18T05:38:00;4.13;;;2.40;;
39050;SDS011;24805;55.852;37.644;2022-11-18T05:43:02;6.38;;;2.28;;
39050;SDS011;24805;55.852;37.644;2022-11-18T05:48:13;3.37;;;2.27;;
39050;SDS011;24805;55.852;37.644;2022-11-18T05:53:16;7.55;;;3.45;;
39050;SDS011;24805;55.852;37.644;2022-11-18T05:58:19;5.75;;;2.45;;
39050;SDS011;24805;55.852;37.644;2022-11-18T06:03:22;4.80;;;2.45;;
39050;SDS011;24805;55.852;37.644;2022-11-18T06:08:34;3.67;;;2.15;;
39050;SDS011;24805;55.852;37.644;2022-11-18T06:13:41;4.20;;;2.92;;
39050;SDS011;24805;55.852;37.644;2022-11-18T06:18:50;5.75;;;2.70;;
39050;SDS011;24805;55.852;37.644;2022-11-18T06:23:53;4.75;;;2.58;;
39050;SDS011;24805;55.852;37.644;2022-11-18T06:28:55;5.95;;;2.78;;
39050;SDS011;24805;55.852;37.644;2022-11-18T06:33:58;4.82;;;2.70;;
39050;SDS011;24805;55.852;37.644;2022-11-18T06:39:04;3.72;;;2.50;;
39050;SDS011;24805;55.852;37.644;2022-11-18T06:44:07;6.15;;;3.20;;
39050;SDS011;24805;55.852;37.644;2022-11-18T06:49:11;3.97;;;2.35;;
39050;SDS011;24805;55.852;37.644;2022-11-18T06:54:13;4.68;;;3.00;;
39050;SDS011;24805;55.852;37.644;2022-11-18T06:59:15;5.90;;;3.13;;
39050;SDS011;24805;55.852;37.644;2022-11-18T07:04:24;7.90;;;2.97;;
39050;SDS011;24805;55.852;37.644;2022-11-18T07:09:26;6.00;;;2.70;;
39050;SDS011;24805;55.852;37.644;2022-11-18T07:14:28;4.25;;;2.58;;
39050;SDS011;24805;55.852;37.644;2022-11-18T07:19:31;5.78;;;2.70;;
39050;SDS011;24805;55.852;37.644;2022-11-18T07:24:36;7.97;;;2.80;;
39050;SDS011;24805;55.852;37.644;2022-11-18T07:29:38;5.82;;;3.10;;
39050;SDS011;24805;55.852;37.644;2022-11-18T07:34:40;5.47;;;2.97;;
39050;SDS011;24805;55.852;37.644;2022-11-18T07:39:42;6.78;;;4.00;;
39050;SDS011;24805;55.852;37.644;2022-11-18T07:44:44;6.05;;;2.85;;
39050;SDS011;24805;55.852;37.644;2022-11-18T07:49:46;4.13;;;2.67;;
39050;SDS011;24805;55.852;37.644;2022-11-18T07:54:48;8.30;;;5.18;;
39050;SDS011;24805;55.852;37.644;2022-11-18T07:59:51;6.68;;;3.78;;
39050;SDS011;24805;55.852;37.644;2022-11-18T08:04:53;4.95;;;3.08;;
39050;SDS011;24805;55.852;37.644;2022-11-18T08:09:55;5.47;;;3.33;;
39050;SDS011;24805;55.852;37.644;2022-11-18T08:14:57;4.47;;;2.65;;
39050;SDS011;24805;55.852;37.644;2022-11-18T08:19:59;4.80;;;3.00;;
39050;SDS011;24805;55.852;37.644;2022-11-18T08:25:01;5.55;;;3.13;;
39050;SDS011;24805;55.852;37.644;2022-11-18T08:30:04;4.70;;;3.03;;
39050;SDS011;24805;55.852;37.644;2022-11-18T08:35:06;5.63;;;2.70;;
39050;SDS011;24805;55.852;37.644;2022-11-18T08:40:12;5.65;;;3.25;;
39050;SDS011;24805;55.852;37.644;2022-11-18T08:45:14;6.63;;;3.20;;
39050;SDS011;24805;55.852;37.644;2022-11-18T08:50:16;6.13;;;3.55;;
39050;SDS011;24805;55.852;37.644;2022-11-18T08:55:19;5.78;;;3.00;;
39050;SDS011;24805;55.852;37.644;2022-11-18T09:00:21;5.60;;;2.53;;
39050;SDS011;24805;55.852;37.644;2022-11-18T09:05:23;3.97;;;2.67;;
39050;SDS011;24805;55.852;37.644;2022-11-18T09:10:25;5.85;;;3.42;;
39050;SDS011;24805;55.852;37.644;2022-11-18T09:15:27;4.57;;;3.05;;
39050;SDS011;24805;55.852;37.644;2022-11-18T09:20:30;5.90;;;3.67;;
39050;SDS011;24805;55.852;37.644;2022-11-18T09:25:32;5.28;;;3.08;;
39050;SDS011;24805;55.852;37.644;2022-11-18T09:30:34;4.80;;;2.50;;
39050;SDS011;24805;55.852;37.644;2022-11-18T09:35:40;6.13;;;3.17;;
39050;SDS011;24805;55.852;37.644;2022-11-18T09:46:07;6.38;;;3.20;;
39050;SDS011;24805;55.852;37.644;2022-11-18T09:51:23;8.45;;;4.95;;
39050;SDS011;24805;55.852;37.644;2022-11-18T09:56:29;6.07;;;3.22;;
39050;SDS011;24805;55.852;37.644;2022-11-18T10:01:31;8.23;;;3.67;;
39050;SDS011;24805;55.852;37.644;2022-11-18T10:06:33;4.88;;;3.05;;
39050;SDS011;24805;55.852;37.644;2022-11-18T10:11:47;5.00;;;3.15;;
39050;SDS011;24805;55.852;37.644;2022-11-18T10:27:49;9.45;;;5.55;;
39050;SDS011;24805;55.852;37.644;2022-11-18T10:33:35;5.85;;;3.28;;
39050;SDS011;24805;55.852;37.644;2022-11-18T10:38:25;6.03;;;3.30;;
39050;SDS011;24805;55.852;37.644;2022-11-18T11:00:03;5.78;;;2.85;;
39050;SDS011;24805;55.852;37.644;2022-11-18T11:04:52;6.80;;;3.50;;
39050;SDS011;24805;55.852;37.644;2022-11-18T11:09:58;5.25;;;3.22;;
39050;SDS011;24805;55.852;37.644;2022-11-18T11:15:12;5.50;;;3.10;;
39050;SDS011;24805;55.852;37.644;2022-11-18T11:20:18;4.20;;;2.65;;
39050;SDS011;24805;55.852;37.644;2022-11-18T11:25:32;12.88;;;5.95;;
39050;SDS011;24805;55.852;37.644;2022-11-18T11:31:24;5.05;;;3.30;;
39050;SDS011;24805;55.852;37.644;2022-11-18T11:47:27;4.95;;;3.00;;
39050;SDS011;24805;55.852;37.644;2022-11-18T12:20:39;5.57;;;3.72;;
39050;SDS011;24805;55.852;37.644;2022-11-18T12:30:48;4.18;;;3.05;;
39050;SDS011;24805;55.852;37.644;2022-11-18T12:35:51;5.00;;;3.15;;
39050;SDS011;24805;55.852;37.644;2022-11-18T12:40:53;5.22;;;3.60;;
39050;SDS011;24805;55.852;37.644;2022-11-18T12:45:56;6.82;;;3.13;;
39050;SDS011;24805;55.852;37.644;2022-11-18T12:51:00;4.75;;;3.28;;
39050;SDS011;24805;55.852;37.644;2022-11-18T12:56:27;6.53;;;3.15;;
39050;SDS011;24805;55.852;37.644;2022-11-18T13:01:35;6.00;;;2.75;;
39050;SDS011;24805;55.852;37.644;2022-11-18T13:06:37;4.78;;;3.05;;
39050;SDS011;24805;55.852;37.644;2022-11-18T13:11:43;4.75;;;3.05;;
39050;SDS011;24805;55.852;37.644;2022-11-18T13:16:51;4.60;;;2.97;;
39050;SDS011;24805;55.852;37.644;2022-11-18T13:22:16;4.70;;;3.00;;
39050;SDS011;24805;55.852;37.644;2022-11-18T13:32:49;5.45;;;3.05;;
39050;SDS011;24805;55.852;37.644;2022-11-18T13:37:55;4.45;;;2.83;;
39050;SDS011;24805;55.852;37.644;2022-11-18T13:42:59;6.85;;;2.85;;
39050;SDS011;24805;55.852;37.644;2022-11-18T13:48:04;5.28;;;2.78;;
39050;SDS011;24805;55.852;37.644;2022-11-18T13:53:18;4.80;;;3.05;;
39050;SDS011;24805;55.852;37.644;2022-11-18T14:04:06;4.63;;;2.78;;
39050;SDS011;24805;55.852;37.644;2022-11-18T14:14:44;4.22;;;2.83;;
39050;SDS011;24805;55.852;37.644;2022-11-18T14:19:51;5.40;;;3.17;;
39050;SDS011;24805;55.852;37.644;2022-11-18T14:35:33;7.20;;;3.13;;
39050;SDS011;24805;55.852;37.644;2022-11-18T14:40:35;6.95;;;3.10;;
39050;SDS011;24805;55.852;37.644;2022-11-18T14:45:38;4.65;;;3.10;;
39050;SDS011;24805;55.852;37.644;2022-11-18T14:50:41;5.68;;;3.03;;
39050;SDS011;24805;55.852;37.644;2022-11-18T14:55:43;4.43;;;2.83;;
39050;SDS011;24805;55.852;37.644;2022-11-18T15:00:47;5.65;;;3.10;;
39050;SDS011;24805;55.852;37.644;2022-11-18T15:05:50;4.75;;;3.15;;
39050;SDS011;24805;55.852;37.644;2022-11-18T15:10:52;5.88;;;3.20;;
39050;SDS011;24805;55.852;37.644;2022-11-18T15:15:54;7.40;;;3.20;;
39050;SDS011;24805;55.852;37.644;2022-11-18T15:20:56;4.90;;;2.85;;
39050;SDS011;24805;55.852;37.644;2022-11-18T15:25:58;4.72;;;3.15;;
39050;SDS011;24805;55.852;37.644;2022-11-18T15:31:00;5.20;;;3.55;;
39050;SDS011;24805;55.852;37.644;2022-11-18T15:36:02;5.57;;;3.08;;
39050;SDS011;24805;55.852;37.644;2022-11-18T15:41:05;6.80;;;3.28;;
39050;SDS011;24805;55.852;37.644;2022-11-18T15:46:09;8.20;;;3.85;;
39050;SDS011;24805;55.852;37.644;2022-11-18T15:51:11;7.57;;;3.80;;
39050;SDS011;24805;55.852;37.644;2022-11-18T16:01:25;6.57;;;3.50;;
39050;SDS011;24805;55.852;37.644;2022-11-18T16:06:31;7.57;;;3.63;;
39050;SDS011;24805;55.852;37.644;2022-11-18T16:11:35;5.57;;;2.95;;
39050;SDS011;24805;55.852;37.644;2022-11-18T16:16:55;6.60;;;3.50;;
39050;SDS011;24805;55.852;37.644;2022-11-18T16:21:57;6.22;;;3.45;;
39050;SDS011;24805;55.852;37.644;2022-11-18T16:27:00;5.90;;;3.70;;
39050;SDS011;24805;55.852;37.644;2022-11-18T16:32:10;6.38;;;3.17;;
39050;SDS011;24805;55.852;37.644;2022-11-18T16:37:15;4.75;;;3.22;;
39050;SDS011;24805;55.852;37.644;2022-11-18T16:42:17;5.80;;;3.58;;
39050;SDS011;24805;55.852;37.644;2022-11-18T16:47:19;5.68;;;3.63;;
39050;SDS011;24805;55.852;37.644;2022-11-18T16:52:21;5.18;;;3.33;;
39050;SDS011;24805;55.852;37.644;2022-11-18T16:57:23;5.63;;;3.20;;
39050;SDS011;24805;55.852;37.644;2022-11-18T17:02:25;6.85;;;3.60;;
39050;SDS011;24805;55.852;37.644;2022-11-18T17:07:28;4.82;;;3.17;;
39050;SDS011;24805;55.852;37.644;2022-11-18T17:12:37;8.40;;;4.43;;
39050;SDS011;24805;55.852;37.644;2022-11-18T17:17:40;7.00;;;3.80;;
39050;SDS011;24805;55.852;37.644;2022-11-18T17:22:44;5.10;;;3.22;;
39050;SDS011;24805;55.852;37.644;2022-11-18T17:27:47;4.88;;;3.42;;
39050;SDS011;24805;55.852;37.644;2022-11-18T17:32:50;6.55;;;3.53;;
39050;SDS011;24805;55.852;37.644;2022-11-18T17:37:52;8.70;;;4.03;;
39050;SDS011;24805;55.852;37.644;2022-11-18T17:42:54;7.72;;;3.63;;
39050;SDS011;24805;55.852;37.644;2022-11-18T17:47:56;7.53;;;3.58;;
39050;SDS011;24805;55.852;37.644;2022-11-18T17:52:58;6.55;;;3.53;;
39050;SDS011;24805;55.852;37.644;2022-11-18T17:58:00;5.07;;;2.95;;
39050;SDS011;24805;55.852;37.644;2022-11-18T18:03:03;6.47;;;3.47;;
39050;SDS011;24805;55.852;37.644;2022-11-18T18:08:07;4.95;;;3.63;;
39050;SDS011;24805;55.852;37.644;2022-11-18T18:13:10;5.03;;;3.15;;
39050;SDS011;24805;55.852;37.644;2022-11-18T18:18:31;6.45;;;3.60;;
39050;SDS011;24805;55.852;37.644;2022-11-18T18:23:33;6.25;;;3.75;;
39050;SDS011;24805;55.852;37.644;2022-11-18T18:28:36;7.30;;;4.15;;
39050;SDS011;24805;55.852;37.644;2022-11-18T18:33:39;6.65;;;3.40;;
39050;SDS011;24805;55.852;37.644;2022-11-18T18:38:41;5.63;;;3.50;;
39050;SDS011;24805;55.852;37.644;2022-11-18T18:43:44;8.05;;;3.45;;
39050;SDS011;24805;55.852;37.644;2022-11-18T18:48:47;7.40;;;3.80;;
39050;SDS011;24805;55.852;37.644;2022-11-18T18:53:49;7.90;;;3.72;;
39050;SDS011;24805;55.852;37.644;2022-11-18T18:58:52;5.70;;;3.10;;
39050;SDS011;24805;55.852;37.644;2022-11-18T19:03:56;11.95;;;5.10;;
39050;SDS011;24805;55.852;37.644;2022-11-18T19:09:03;7.28;;;4.20;;
39050;SDS011;24805;55.852;37.644;2022-11-18T19:14:08;6.75;;;3.47;;
39050;SDS011;24805;55.852;37.644;2022-11-18T19:19:12;6.55;;;4.10;;
39050;SDS011;24805;55.852;37.644;2022-11-18T19:24:16;7.03;;;3.95;;
39050;SDS011;24805;55.852;37.644;2022-11-18T19:29:39;6.30;;;3.80;;
39050;SDS011;24805;55.852;37.644;2022-11-18T19:34:41;7.40;;;4.10;;
39050;SDS011;24805;55.852;37.644;2022-11-18T19:39:43;6.90;;;3.63;;
39050;SDS011;24805;55.852;37.644;2022-11-18T19:44:47;6.25;;;4.00;;
39050;SDS011;24805;55.852;37.644;2022-11-18T19:49:49;6.07;;;3.65;;
39050;SDS011;24805;55.852;37.644;2022-11-18T19:54:51;6.90;;;4.20;;
39050;SDS011;24805;55.852;37.644;2022-11-18T19:59:53;9.27;;;4.50;;
39050;SDS011;24805;55.852;37.644;2022-11-18T20:04:55;7.00;;;3.92;;
39050;SDS011;24805;55.852;37.644;2022-11-18T20:10:16;6.93;;;5.30;;
39050;SDS011;24805;55.852;37.644;2022-11-18T20:15:18;7.15;;;4.15;;
39050;SDS011;24805;55.852;37.644;2022-11-18T20:20:20;6.32;;;3.90;;
39050;SDS011;24805;55.852;37.644;2022-11-18T20:25:22;6.70;;;4.03;;
39050;SDS011;24805;55.852;37.644;2022-11-18T20:30:26;6.93;;;4.05;;
39050;SDS011;24805;55.852;37.644;2022-11-18T20:35:28;8.48;;;4.47;;
39050;SDS011;24805;55.852;37.644;2022-11-18T20:40:30;7.43;;;4.20;;
39050;SDS011;24805;55.852;37.644;2022-11-18T20:45:32;7.55;;;3.78;;
39050;SDS011;24805;55.852;37.644;2022-11-18T20:50:35;8.20;;;4.15;;
39050;SDS011;24805;55.852;37.644;2022-11-18T20:55:38;7.70;;;4.38;;
39050;SDS011;24805;55.852;37.644;2022-11-18T21:00:41;10.80;;;6.18;;
39050;SDS011;24805;55.852;37.644;2022-11-18T21:05:44;6.57;;;4.25;;
39050;SDS011;24805;55.852;37.644;2022-11-18T21:10:46;7.25;;;4.35;;
39050;SDS011;24805;55.852;37.644;2022-11-18T21:15:48;10.18;;;4.65;;
39050;SDS011;24805;55.852;37.644;2022-11-18T21:20:54;6.05;;;3.70;;
39050;SDS011;24805;55.852;37.644;2022-11-18T21:26:16;7.93;;;3.78;;
39050;SDS011;24805;55.852;37.644;2022-11-18T21:31:18;6.05;;;4.10;;
39050;SDS011;24805;55.852;37.644;2022-11-18T21:36:24;9.02;;;4.03;;
39050;SDS011;24805;55.852;37.644;2022-11-18T21:41:27;10.48;;;6.03;;
39050;SDS011;24805;55.852;37.644;2022-11-18T21:46:30;7.28;;;3.92;;
39050;SDS011;24805;55.852;37.644;2022-11-18T21:51:32;7.45;;;3.80;;
39050;SDS011;24805;55.852;37.644;2022-11-18T21:56:35;8.55;;;3.85;;
39050;SDS011;24805;55.852;37.644;2022-11-18T22:01:37;8.10;;;4.50;;
39050;SDS011;24805;55.852;37.644;2022-11-18T22:06:40;7.38;;;4.35;;
39050;SDS011;24805;55.852;37.644;2022-11-18T22:11:42;7.60;;;4.78;;
39050;SDS011;24805;55.852;37.644;2022-11-18T22:16:44;10.10;;;5.65;;
39050;SDS011;24805;55.852;37.644;2022-11-18T22:21:46;10.65;;;5.30;;
39050;SDS011;24805;55.852;37.644;2022-11-18T22:26:48;9.48;;;5.00;;
39050;SDS011;24805;55.852;37.644;2022-11-18T22:31:50;9.15;;;5.45;;
39050;SDS011;24805;55.852;37.644;2022-11-18T22:36:52;9.43;;;4.85;;
39050;SDS011;24805;55.852;37.644;2022-11-18T22:41:54;10.07;;;5.22;;
39050;SDS011;24805;55.852;37.644;2022-11-18T22:47:15;9.90;;;5.07;;
39050;SDS011;24805;55.852;37.644;2022-11-18T22:52:17;9.68;;;4.93;;
39050;SDS011;24805;55.852;37.644;2022-11-18T22:57:19;9.10;;;4.38;;
39050;SDS011;24805;55.852;37.644;2022-11-18T23:02:21;8.55;;;5.03;;
39050;SDS011;24805;55.852;37.644;2022-11-18T23:07:23;10.57;;;4.85;;
39050;SDS011;24805;55.852;37.644;2022-11-18T23:12:25;9.00;;;4.93;;
39050;SDS011;24805;55.852;37.644;2022-11-18T23:17:48;14.63;;;10.30;;
39050;SDS011;24805;55.852;37.644;2022-11-18T23:22:50;10.55;;;5.25;;
39050;SDS011;24805;55.852;37.644;2022-11-18T23:27:54;10.93;;;5.07;;
39050;SDS011;24805;55.852;37.644;2022-11-18T23:32:56;11.07;;;6.07;;
39050;SDS011;24805;55.852;37.644;2022-11-18T23:37:58;12.30;;;5.30;;
39050;SDS011;24805;55.852;37.644;2022-11-18T23:43:00;11.38;;;5.85;;
39050;SDS011;24805;55.852;37.644;2022-11-18T23:48:02;6.22;;;4.00;;
39050;SDS011;24805;55.852;37.644;2022-11-18T23:53:04;9.88;;;5.43;;
39050;SDS011;24805;55.852;37.644;2022-11-18T23:58:07;7.75;;;4.43;;
